createdAt,value
2018-09-22T00:00:03.608Z,1012.28
2018-09-22T00:01:30.966Z,1012.29
2018-09-22T00:02:58.319Z,1012.22
2018-09-22T00:04:25.681Z,1012.24
2018-09-22T00:05:52.984Z,1012.24
2018-09-22T00:07:19.492Z,1012.29
2018-09-22T00:08:46.952Z,1012.23
2018-09-22T00:10:14.433Z,1012.21
2018-09-22T00:11:41.495Z,1012.22
2018-09-22T00:13:08.803Z,1012.22
2018-09-22T00:14:36.085Z,1012.23
2018-09-22T00:16:03.539Z,1012.25
2018-09-22T00:17:30.969Z,1012.28
2018-09-22T00:18:57.955Z,1012.27
2018-09-22T00:20:24.669Z,1012.30
2018-09-22T00:21:52.292Z,1012.31
2018-09-22T00:23:19.488Z,1012.32
2018-09-22T00:24:46.910Z,1012.33
2018-09-22T00:26:14.167Z,1012.35
2018-09-22T00:27:41.386Z,1012.33
2018-09-22T00:29:08.833Z,1012.31
2018-09-22T00:30:35.642Z,1012.35
2018-09-22T00:32:03.093Z,1012.31
2018-09-22T00:33:30.643Z,1012.30
2018-09-22T00:34:57.349Z,1012.31
2018-09-22T00:36:24.707Z,1012.33
2018-09-22T00:37:52.182Z,1012.42
2018-09-22T00:39:19.615Z,1012.46
2018-09-22T00:40:46.586Z,1012.46
2018-09-22T00:42:14.075Z,1012.41
2018-09-22T00:43:41.277Z,1012.43
2018-09-22T00:45:08.548Z,1012.39
2018-09-22T00:46:35.895Z,1012.44
2018-09-22T00:48:03.102Z,1012.40
2018-09-22T00:49:29.741Z,1012.46
2018-09-22T00:50:57.094Z,1012.50
2018-09-22T00:52:24.392Z,1012.47
2018-09-22T00:53:51.861Z,1012.52
2018-09-22T00:55:18.546Z,1012.59
2018-09-22T00:56:45.954Z,1012.58
2018-09-22T00:58:13.243Z,1012.59
2018-09-22T00:59:40.483Z,1012.61
2018-09-22T01:01:07.760Z,1012.62
2018-09-22T01:02:34.988Z,1012.61
2018-09-22T01:04:02.132Z,1012.61
2018-09-22T01:05:29.520Z,1012.66
2018-09-22T01:06:57.018Z,1012.67
2018-09-22T01:08:24.344Z,1012.73
2018-09-22T01:09:51.700Z,1012.73
2018-09-22T01:11:18.444Z,1012.74
2018-09-22T01:12:44.895Z,1012.75
2018-09-22T01:14:11.560Z,1012.77
2018-09-22T01:15:38.564Z,1012.81
2018-09-22T01:17:05.823Z,1012.79
2018-09-22T01:18:33.252Z,1012.85
2018-09-22T01:20:00.600Z,1012.91
2018-09-22T01:21:28.000Z,1012.92
2018-09-22T01:22:54.729Z,1012.96
2018-09-22T01:24:22.239Z,1012.98
2018-09-22T01:25:49.463Z,1013.02
2018-09-22T01:27:16.850Z,1013.02
2018-09-22T01:28:44.419Z,1013.05
2018-09-22T01:30:11.673Z,1013.09
2018-09-22T01:31:39.135Z,1013.11
2018-09-22T01:33:06.310Z,1013.14
2018-09-22T01:34:33.005Z,1013.14
2018-09-22T01:36:00.346Z,1013.15
2018-09-22T01:37:27.791Z,1013.16
2018-09-22T01:38:55.044Z,1013.16
2018-09-22T01:40:22.434Z,1013.15
2018-09-22T01:41:49.100Z,1013.15
2018-09-22T01:43:16.452Z,1013.18
2018-09-22T01:44:43.655Z,1013.19
2018-09-22T01:46:10.989Z,1013.19
2018-09-22T01:47:38.343Z,1013.17
2018-09-22T01:49:05.735Z,1013.22
2018-09-22T01:50:33.175Z,1013.20
2018-09-22T01:52:00.470Z,1013.21
2018-09-22T01:53:35.856Z,1013.21
2018-09-22T01:54:54.530Z,1013.23
2018-09-22T01:56:21.730Z,1013.28
2018-09-22T01:57:49.146Z,1013.30
2018-09-22T01:59:15.995Z,1013.32
2018-09-22T02:00:42.949Z,1013.39
2018-09-22T02:02:10.161Z,1013.39
2018-09-22T02:03:37.156Z,1013.41
2018-09-22T02:05:04.319Z,1013.41
2018-09-22T02:06:31.592Z,1013.40
2018-09-22T02:07:58.940Z,1013.40
2018-09-22T02:09:26.325Z,1013.39
2018-09-22T02:10:53.542Z,1013.46
2018-09-22T02:12:20.968Z,1013.49
2018-09-22T02:13:48.209Z,1013.51
2018-09-22T02:15:14.833Z,1013.50
2018-09-22T02:16:42.243Z,1013.52
2018-09-22T02:18:09.417Z,1013.52
2018-09-22T02:19:36.724Z,1013.59
2018-09-22T02:21:04.018Z,1013.60
2018-09-22T02:22:31.497Z,1013.62
2018-09-22T02:23:58.709Z,1013.62
2018-09-22T02:25:26.156Z,1013.57
2018-09-22T02:26:54.376Z,1013.64
2018-09-22T02:28:20.545Z,1013.65
2018-09-22T02:29:47.254Z,1013.67
2018-09-22T02:31:13.928Z,1013.69
2018-09-22T02:32:41.198Z,1013.70
2018-09-22T02:34:08.343Z,1013.70
2018-09-22T02:35:35.682Z,1013.68
2018-09-22T02:37:02.903Z,1013.72
2018-09-22T02:38:30.293Z,1013.72
2018-09-22T02:39:57.744Z,1013.71
2018-09-22T02:41:25.106Z,1013.68
2018-09-22T02:42:52.607Z,1013.70
2018-09-22T02:44:18.964Z,1013.72
2018-09-22T02:45:46.091Z,1013.73
2018-09-22T02:47:13.100Z,1013.77
2018-09-22T02:48:40.258Z,1013.79
2018-09-22T02:50:07.762Z,1013.79
2018-09-22T02:51:34.220Z,1013.82
2018-09-22T02:53:01.189Z,1013.85
2018-09-22T02:54:27.650Z,1013.86
2018-09-22T02:55:54.937Z,1013.89
2018-09-22T02:57:22.382Z,1013.94
2018-09-22T02:58:49.835Z,1013.93
2018-09-22T03:00:17.056Z,1013.96
2018-09-22T03:01:43.507Z,1014.00
2018-09-22T03:03:10.203Z,1014.04
2018-09-22T03:04:37.500Z,1014.02
2018-09-22T03:06:04.659Z,1014.00
2018-09-22T03:07:31.205Z,1014.01
2018-09-22T03:08:58.464Z,1014.05
2018-09-22T03:10:25.312Z,1014.03
2018-09-22T03:11:52.532Z,1014.03
2018-09-22T03:13:19.979Z,1014.03
2018-09-22T03:14:47.077Z,1014.02
2018-09-22T03:16:14.452Z,1013.99
2018-09-22T03:17:41.564Z,1014.03
2018-09-22T03:19:08.093Z,1013.99
2018-09-22T03:20:35.219Z,1014.00
2018-09-22T03:22:02.671Z,1014.07
2018-09-22T03:23:30.076Z,1014.12
2018-09-22T03:24:56.747Z,1014.14
2018-09-22T03:26:23.371Z,1014.17
2018-09-22T03:27:50.512Z,1014.22
2018-09-22T03:29:17.822Z,1014.22
2018-09-22T03:30:45.214Z,1014.24
2018-09-22T03:32:12.010Z,1014.21
2018-09-22T03:33:39.440Z,1014.28
2018-09-22T03:35:06.892Z,1014.35
2018-09-22T03:36:34.140Z,1014.38
2018-09-22T03:38:01.538Z,1014.40
2018-09-22T03:39:28.848Z,1014.40
2018-09-22T03:40:55.202Z,1014.39
2018-09-22T03:42:22.628Z,1014.39
2018-09-22T03:43:49.029Z,1014.40
2018-09-22T03:45:16.262Z,1014.41
2018-09-22T03:46:43.579Z,1014.40
2018-09-22T03:48:10.843Z,1014.41
2018-09-22T03:49:38.180Z,1014.41
2018-09-22T03:51:05.282Z,1014.40
2018-09-22T03:52:32.727Z,1014.42
2018-09-22T03:53:59.474Z,1014.47
2018-09-22T04:04:19.842Z,1014.57
2018-09-22T04:05:46.419Z,1014.57
2018-09-22T04:07:13.690Z,1014.58
2018-09-22T04:08:40.997Z,1014.61
2018-09-22T04:10:07.444Z,1014.66
2018-09-22T04:11:33.768Z,1014.66
2018-09-22T04:13:01.128Z,1014.66
2018-09-22T04:14:28.650Z,1014.64
2018-09-22T04:15:55.627Z,1014.72
2018-09-22T04:17:23.070Z,1014.71
2018-09-22T04:18:50.333Z,1014.71
2018-09-22T04:20:17.704Z,1014.74
2018-09-22T04:21:45.134Z,1014.75
2018-09-22T04:23:11.555Z,1014.79
2018-09-22T04:24:38.529Z,1014.78
2018-09-22T04:26:05.668Z,1014.77
2018-09-22T04:27:33.062Z,1014.79
2018-09-22T04:29:00.328Z,1014.77
2018-09-22T04:30:27.538Z,1014.77
2018-09-22T04:31:54.960Z,1014.78
2018-09-22T04:33:22.263Z,1014.75
2018-09-22T04:34:49.599Z,1014.81
2018-09-22T04:36:16.370Z,1014.82
2018-09-22T04:37:43.837Z,1014.83
2018-09-22T04:39:11.277Z,1014.85
2018-09-22T04:40:38.678Z,1014.92
2018-09-22T04:42:06.130Z,1014.98
2018-09-22T04:43:33.416Z,1015.01
2018-09-22T04:45:00.872Z,1014.99
2018-09-22T04:46:28.202Z,1015.00
2018-09-22T04:47:55.807Z,1015.00
2018-09-22T04:49:22.174Z,1014.99
2018-09-22T04:50:49.515Z,1015.00
2018-09-22T04:52:17.008Z,1014.96
2018-09-22T04:53:43.886Z,1014.97
2018-09-22T04:55:10.988Z,1014.98
2018-09-22T04:56:38.541Z,1014.98
2018-09-22T04:58:05.811Z,1015.01
2018-09-22T04:59:32.950Z,1015.03
2018-09-22T05:01:00.304Z,1015.09
2018-09-22T05:02:27.811Z,1015.07
2018-09-22T05:09:44.026Z,1015.32
2018-09-22T05:11:10.838Z,1015.35
2018-09-22T05:12:37.819Z,1015.40
2018-09-22T05:14:14.619Z,1015.38
2018-09-22T05:15:41.773Z,1015.41
2018-09-22T05:17:08.628Z,1015.41
2018-09-22T05:18:35.228Z,1015.44
2018-09-22T05:20:02.605Z,1015.41
2018-09-22T05:21:29.540Z,1015.42
2018-09-22T05:22:56.983Z,1015.44
2018-09-22T05:24:24.272Z,1015.48
2018-09-22T05:37:10.154Z,1015.46
2018-09-22T05:38:36.827Z,1015.47
2018-09-22T05:40:03.572Z,1015.44
2018-09-22T05:41:30.037Z,1015.44
2018-09-22T05:42:57.243Z,1015.47
2018-09-22T05:44:23.731Z,1015.51
2018-09-22T05:45:50.911Z,1015.57
2018-09-22T05:47:18.427Z,1015.57
2018-09-22T05:48:45.722Z,1015.58
2018-09-22T05:50:13.029Z,1015.58
2018-09-22T05:51:40.432Z,1015.59
2018-09-22T06:02:10.382Z,1015.70
2018-09-22T06:03:37.060Z,1015.74
2018-09-22T06:09:45.221Z,1015.80
2018-09-22T06:16:12.097Z,1015.88
2018-09-22T06:17:38.675Z,1015.92
2018-09-22T06:19:05.850Z,1015.93
2018-09-22T06:20:33.279Z,1015.94
2018-09-22T06:21:59.868Z,1015.97
2018-09-22T06:23:26.882Z,1015.97
2018-09-22T06:24:53.595Z,1016.00
2018-09-22T06:26:20.996Z,1016.03
2018-09-22T06:27:48.476Z,1016.01
2018-09-22T06:29:15.681Z,1016.05
2018-09-22T06:30:42.875Z,1016.05
2018-09-22T06:32:10.290Z,1016.10
2018-09-22T06:33:37.408Z,1016.10
2018-09-22T06:35:04.575Z,1016.13
2018-09-22T06:36:31.181Z,1016.14
2018-09-22T06:37:57.818Z,1016.16
2018-09-22T06:39:25.095Z,1016.15
2018-09-22T06:40:52.408Z,1016.18
2018-09-22T06:42:19.628Z,1016.18
2018-09-22T06:43:47.026Z,1016.18
2018-09-22T06:45:14.337Z,1016.16
2018-09-22T06:46:41.142Z,1016.24
2018-09-22T06:48:08.639Z,1016.28
2018-09-22T06:49:36.116Z,1016.32
2018-09-22T06:51:03.025Z,1016.27
2018-09-22T06:52:30.289Z,1016.25
2018-09-22T06:53:57.638Z,1016.26
2018-09-22T06:55:24.317Z,1016.33
2018-09-22T06:56:51.549Z,1016.34
2018-09-22T06:58:19.014Z,1016.42
2018-09-22T06:59:45.702Z,1016.41
2018-09-22T07:01:13.219Z,1016.42
2018-09-22T07:02:40.627Z,1016.48
2018-09-22T07:04:07.926Z,1016.49
2018-09-22T07:05:35.209Z,1016.51
2018-09-22T07:07:02.405Z,1016.51
2018-09-22T07:08:29.376Z,1016.58
2018-09-22T07:09:56.983Z,1016.63
2018-09-22T07:11:24.303Z,1016.62
2018-09-22T07:12:51.673Z,1016.61
2018-09-22T07:14:19.002Z,1016.57
2018-09-22T07:15:46.342Z,1016.59
2018-09-22T07:17:13.596Z,1016.59
2018-09-22T07:18:40.765Z,1016.61
2018-09-22T07:20:07.835Z,1016.64
2018-09-22T07:21:34.833Z,1016.61
2018-09-22T07:23:01.933Z,1016.63
2018-09-22T07:24:29.127Z,1016.66
2018-09-22T07:25:56.083Z,1016.71
2018-09-22T07:27:23.550Z,1016.76
2018-09-22T07:28:51.080Z,1016.72
2018-09-22T07:30:18.333Z,1016.75
2018-09-22T07:31:45.788Z,1016.77
2018-09-22T07:33:12.938Z,1016.82
2018-09-22T07:34:39.687Z,1016.83
2018-09-22T07:36:06.389Z,1016.84
2018-09-22T07:37:33.251Z,1016.88
2018-09-22T07:38:59.680Z,1016.90
2018-09-22T07:40:26.453Z,1016.89
2018-09-22T07:41:53.934Z,1016.88
2018-09-22T07:43:20.719Z,1016.92
2018-09-22T07:44:47.233Z,1016.91
2018-09-22T07:46:14.463Z,1016.93
2018-09-22T07:47:41.330Z,1016.93
2018-09-22T07:49:08.555Z,1016.92
2018-09-22T07:50:35.881Z,1016.93
2018-09-22T07:52:03.226Z,1016.94
2018-09-22T07:53:30.482Z,1016.93
2018-09-22T07:54:57.901Z,1016.93
2018-09-22T07:56:24.821Z,1016.93
2018-09-22T07:57:52.386Z,1016.90
2018-09-22T07:59:19.783Z,1016.93
2018-09-22T08:00:47.249Z,1016.93
2018-09-22T08:02:14.541Z,1016.94
2018-09-22T08:03:41.976Z,1016.98
2018-09-22T08:05:09.199Z,1016.95
2018-09-22T08:06:36.418Z,1016.97
2018-09-22T08:08:03.712Z,1016.96
2018-09-22T08:09:31.374Z,1016.92
2018-09-22T08:10:58.661Z,1016.91
2018-09-22T08:12:26.249Z,1016.93
2018-09-22T08:13:53.562Z,1016.97
2018-09-22T08:15:20.970Z,1017.02
2018-09-22T08:16:47.641Z,1017.06
2018-09-22T08:18:14.628Z,1017.07
2018-09-22T08:19:41.816Z,1017.15
2018-09-22T08:21:08.958Z,1017.15
2018-09-22T08:22:36.030Z,1017.18
2018-09-22T08:24:03.004Z,1017.19
2018-09-22T08:25:30.501Z,1017.22
2018-09-22T08:26:57.637Z,1017.17
2018-09-22T08:28:24.863Z,1017.16
2018-09-22T08:29:52.202Z,1017.15
2018-09-22T08:31:20.666Z,1017.14
2018-09-22T08:32:46.670Z,1017.15
2018-09-22T08:34:13.984Z,1017.14
2018-09-22T08:35:41.322Z,1017.15
2018-09-22T08:37:08.895Z,1017.17
2018-09-22T08:38:35.641Z,1017.16
2018-09-22T08:40:02.941Z,1017.12
2018-09-22T08:41:30.186Z,1017.12
2018-09-22T08:42:57.549Z,1017.15
2018-09-22T08:44:24.865Z,1017.18
2018-09-22T08:45:52.297Z,1017.21
2018-09-22T08:47:19.478Z,1017.23
2018-09-22T08:48:46.967Z,1017.21
2018-09-22T08:50:14.359Z,1017.24
2018-09-22T08:51:41.813Z,1017.25
2018-09-22T08:53:08.898Z,1017.28
2018-09-22T08:54:35.896Z,1017.27
2018-09-22T08:56:03.151Z,1017.29
2018-09-22T08:57:30.416Z,1017.27
2018-09-22T08:58:57.800Z,1017.26
2018-09-22T09:00:24.503Z,1017.23
2018-09-22T09:01:51.654Z,1017.25
2018-09-22T09:03:18.239Z,1017.21
2018-09-22T09:04:45.395Z,1017.21
2018-09-22T09:06:12.584Z,1017.26
2018-09-22T09:07:39.663Z,1017.24
2018-09-22T09:09:06.495Z,1017.20
2018-09-22T09:10:33.952Z,1017.23
2018-09-22T09:12:00.722Z,1017.25
2018-09-22T09:13:28.195Z,1017.23
2018-09-22T09:14:55.601Z,1017.24
2018-09-22T09:16:22.600Z,1017.21
2018-09-22T09:17:50.015Z,1017.22
2018-09-22T09:19:16.663Z,1017.21
2018-09-22T09:20:43.909Z,1017.20
2018-09-22T09:22:11.306Z,1017.23
2018-09-22T09:23:38.615Z,1017.23
2018-09-22T09:25:05.561Z,1017.20
2018-09-22T09:26:32.801Z,1017.20
2018-09-22T09:28:00.189Z,1017.21
2018-09-22T09:29:27.701Z,1017.21
2018-09-22T09:30:54.489Z,1017.20
2018-09-22T09:32:21.778Z,1017.17
2018-09-22T09:33:49.098Z,1017.18
2018-09-22T09:35:16.342Z,1017.20
2018-09-22T09:36:43.922Z,1017.24
2018-09-22T09:38:10.723Z,1017.20
2018-09-22T09:39:38.088Z,1017.23
2018-09-22T09:41:05.344Z,1017.22
2018-09-22T09:42:32.804Z,1017.19
2018-09-22T09:44:00.167Z,1017.19
2018-09-22T09:45:27.097Z,1017.19
2018-09-22T09:46:54.382Z,1017.19
2018-09-22T09:48:21.742Z,1017.13
2018-09-22T09:49:48.698Z,1017.14
2018-09-22T09:51:16.201Z,1017.16
2018-09-22T09:52:43.451Z,1017.16
2018-09-22T09:54:10.298Z,1017.17
2018-09-22T09:55:37.348Z,1017.13
2018-09-22T09:57:04.392Z,1017.10
2018-09-22T09:58:31.816Z,1017.13
2018-09-22T09:59:58.881Z,1017.14
2018-09-22T10:01:26.420Z,1017.16
2018-09-22T10:02:53.876Z,1017.13
2018-09-22T10:04:21.180Z,1017.17
2018-09-22T10:05:47.650Z,1017.16
2018-09-22T10:07:14.717Z,1017.18
2018-09-22T10:08:41.746Z,1017.10
2018-09-22T10:10:09.118Z,1017.11
2018-09-22T10:11:36.343Z,1017.10
2018-09-22T10:13:03.684Z,1017.04
2018-09-22T10:14:31.137Z,1017.08
2018-09-22T10:15:58.491Z,1017.07
2018-09-22T10:17:26.043Z,1017.10
2018-09-22T10:18:53.447Z,1017.11
2018-09-22T10:20:20.713Z,1017.07
2018-09-22T10:21:47.997Z,1017.06
2018-09-22T10:23:15.419Z,1017.06
2018-09-22T10:24:42.781Z,1017.05
2018-09-22T10:26:09.980Z,1016.98
2018-09-22T10:27:37.183Z,1016.96
2018-09-22T10:29:03.898Z,1016.98
2018-09-22T10:30:31.451Z,1016.99
2018-09-22T10:31:58.438Z,1016.93
2018-09-22T10:33:25.537Z,1016.90
2018-09-22T10:34:52.828Z,1016.96
2018-09-22T10:36:20.288Z,1016.91
2018-09-22T10:37:47.584Z,1016.84
2018-09-22T10:39:14.870Z,1016.83
2018-09-22T10:40:42.212Z,1016.90
2018-09-22T10:42:09.260Z,1016.84
2018-09-22T10:43:36.144Z,1016.80
2018-09-22T10:45:03.634Z,1016.75
2018-09-22T10:46:31.051Z,1016.75
2018-09-22T10:47:57.841Z,1016.76
2018-09-22T10:49:25.394Z,1016.77
2018-09-22T10:50:52.372Z,1016.73
2018-09-22T10:52:19.769Z,1016.75
2018-09-22T10:53:46.976Z,1016.77
2018-09-22T10:55:13.466Z,1016.72
2018-09-22T10:56:40.767Z,1016.73
2018-09-22T10:58:08.323Z,1016.71
2018-09-22T10:59:35.666Z,1016.75
2018-09-22T11:01:02.909Z,1016.75
2018-09-22T11:02:30.367Z,1016.74
2018-09-22T11:03:57.881Z,1016.74
2018-09-22T11:05:25.473Z,1016.73
2018-09-22T11:06:52.904Z,1016.72
2018-09-22T11:08:20.335Z,1016.75
2018-09-22T11:09:46.975Z,1016.67
2018-09-22T11:11:14.322Z,1016.67
2018-09-22T11:12:41.711Z,1016.68
2018-09-22T11:14:08.865Z,1016.73
2018-09-22T11:15:36.180Z,1016.74
2018-09-22T11:17:03.626Z,1016.72
2018-09-22T11:18:30.932Z,1016.65
2018-09-22T11:19:57.695Z,1016.62
2018-09-22T11:21:25.198Z,1016.54
2018-09-22T11:22:52.836Z,1016.55
2018-09-22T11:24:20.212Z,1016.55
2018-09-22T11:25:47.617Z,1016.55
2018-09-22T11:27:14.735Z,1016.49
2018-09-22T11:28:42.188Z,1016.47
2018-09-22T11:30:09.666Z,1016.53
2018-09-22T11:31:37.015Z,1016.46
2018-09-22T11:33:04.458Z,1016.49
2018-09-22T11:34:31.122Z,1016.43
2018-09-22T11:35:58.315Z,1016.43
2018-09-22T11:37:25.754Z,1016.42
2018-09-22T11:38:53.337Z,1016.48
2018-09-22T11:40:20.104Z,1016.46
2018-09-22T11:41:46.919Z,1016.41
2018-09-22T11:43:14.388Z,1016.41
2018-09-22T11:44:41.775Z,1016.40
2018-09-22T11:46:09.343Z,1016.45
2018-09-22T11:47:36.238Z,1016.44
2018-09-22T11:49:03.784Z,1016.49
2018-09-22T11:50:31.033Z,1016.43
2018-09-22T11:51:58.552Z,1016.49
2018-09-22T11:53:25.542Z,1016.50
2018-09-22T11:54:53.060Z,1016.50
2018-09-22T11:56:20.518Z,1016.54
2018-09-22T11:57:46.985Z,1016.63
2018-09-22T11:59:14.268Z,1016.76
2018-09-22T12:00:41.469Z,1016.78
2018-09-22T12:02:08.644Z,1016.77
2018-09-22T12:03:36.098Z,1016.91
2018-09-22T12:05:03.562Z,1016.95
2018-09-22T12:06:31.248Z,1016.94
2018-09-22T12:07:58.441Z,1016.85
2018-09-22T12:09:25.886Z,1016.83
2018-09-22T12:10:53.247Z,1016.75
2018-09-22T12:12:20.431Z,1016.59
2018-09-22T12:13:47.466Z,1016.60
2018-09-22T12:15:14.934Z,1016.61
2018-09-22T12:16:42.293Z,1016.62
2018-09-22T12:18:09.286Z,1016.61
2018-09-22T12:19:36.679Z,1016.62
2018-09-22T12:21:03.616Z,1016.60
2018-09-22T12:22:30.331Z,1016.58
2018-09-22T12:23:57.861Z,1016.57
2018-09-22T12:25:25.467Z,1016.57
2018-09-22T12:26:52.606Z,1016.60
2018-09-22T12:28:19.843Z,1016.59
2018-09-22T12:29:47.255Z,1016.53
2018-09-22T12:31:14.331Z,1016.50
2018-09-22T12:32:41.695Z,1016.50
2018-09-22T12:34:08.997Z,1016.52
2018-09-22T12:35:36.328Z,1016.55
2018-09-22T12:37:03.668Z,1016.57
2018-09-22T12:38:30.880Z,1016.52
2018-09-22T12:39:58.090Z,1016.48
2018-09-22T12:41:25.437Z,1016.43
2018-09-22T12:42:52.925Z,1016.47
2018-09-22T12:44:19.700Z,1016.50
2018-09-22T12:45:46.180Z,1016.47
2018-09-22T12:47:13.551Z,1016.51
2018-09-22T12:48:41.005Z,1016.49
2018-09-22T12:50:08.001Z,1016.48
2018-09-22T12:51:35.295Z,1016.49
2018-09-22T12:53:02.844Z,1016.52
2018-09-22T12:54:30.308Z,1016.54
2018-09-22T12:55:57.630Z,1016.53
2018-09-22T12:57:26.247Z,1016.53
2018-09-22T12:58:52.703Z,1016.52
2018-09-22T13:00:20.111Z,1016.54
2018-09-22T13:01:47.397Z,1016.54
2018-09-22T13:03:14.247Z,1016.54
2018-09-22T13:04:40.994Z,1016.50
2018-09-22T13:06:08.389Z,1016.47
2018-09-22T13:07:35.139Z,1016.56
2018-09-22T13:09:02.559Z,1016.55
2018-09-22T13:10:29.771Z,1016.60
2018-09-22T13:11:57.222Z,1016.54
2018-09-22T13:13:24.321Z,1016.50
2018-09-22T13:14:51.350Z,1016.42
2018-09-22T13:16:18.687Z,1016.56
2018-09-22T13:17:45.865Z,1016.96
2018-09-22T13:19:13.373Z,1017.37
2018-09-22T13:20:40.666Z,1017.42
2018-09-22T13:22:07.787Z,1017.36
2018-09-22T13:23:35.074Z,1017.41
2018-09-22T13:25:10.516Z,1017.27
2018-09-22T13:26:29.119Z,1017.18
2018-09-22T13:27:56.371Z,1017.13
2018-09-22T13:29:26.854Z,1017.05
2018-09-22T13:30:50.460Z,1017.09
2018-09-22T13:32:17.842Z,1017.11
2018-09-22T13:33:45.131Z,1017.11
2018-09-22T13:35:12.467Z,1017.12
2018-09-22T13:36:39.813Z,1017.13
2018-09-22T13:38:06.820Z,1017.15
2018-09-22T13:39:34.266Z,1017.19
2018-09-22T13:41:01.739Z,1017.30
2018-09-22T13:42:29.228Z,1017.34
2018-09-22T13:43:56.785Z,1017.27
2018-09-22T13:45:24.014Z,1017.36
2018-09-22T13:46:51.372Z,1017.45
2018-09-22T13:48:18.658Z,1017.55
2018-09-22T13:49:46.241Z,1017.59
2018-09-22T13:51:13.451Z,1017.67
2018-09-22T13:52:40.164Z,1017.64
2018-09-22T13:54:07.369Z,1017.70
2018-09-22T13:55:34.600Z,1017.65
2018-09-22T13:57:01.560Z,1017.65
2018-09-22T13:58:28.902Z,1017.59
2018-09-22T13:59:55.657Z,1017.47
2018-09-22T14:01:22.967Z,1017.46
2018-09-22T14:02:49.547Z,1017.52
2018-09-22T14:04:16.762Z,1017.50
2018-09-22T14:05:43.078Z,1017.52
2018-09-22T14:07:10.472Z,1017.54
2018-09-22T14:08:37.837Z,1017.59
2018-09-22T14:10:04.745Z,1017.59
2018-09-22T14:11:32.848Z,1017.55
2018-09-22T14:12:58.150Z,1017.60
2018-09-22T14:14:25.463Z,1017.57
2018-09-22T14:15:52.894Z,1017.55
2018-09-22T14:17:20.383Z,1017.54
2018-09-22T14:18:47.752Z,1017.52
2018-09-22T14:20:14.985Z,1017.48
2018-09-22T14:21:42.241Z,1017.54
2018-09-22T14:23:09.598Z,1017.54
2018-09-22T14:24:36.603Z,1017.55
2018-09-22T14:26:02.979Z,1017.57
2018-09-22T14:27:30.433Z,1017.59
2018-09-22T14:28:57.571Z,1017.63
2018-09-22T14:30:24.954Z,1017.60
2018-09-22T14:31:52.205Z,1017.61
2018-09-22T14:33:19.607Z,1017.69
2018-09-22T14:42:03.163Z,1017.38
2018-09-22T14:43:29.817Z,1017.44
2018-09-22T14:44:57.067Z,1017.39
2018-09-22T14:46:24.456Z,1017.37
2018-09-22T14:47:51.734Z,1017.34
2018-09-22T14:49:19.180Z,1017.39
2018-09-22T14:50:46.534Z,1017.41
2018-09-22T14:52:13.437Z,1017.40
2018-09-22T14:53:40.980Z,1017.38
2018-09-22T14:55:07.578Z,1017.39
2018-09-22T14:56:34.978Z,1017.39
2018-09-22T14:58:01.500Z,1017.44
2018-09-22T14:59:28.799Z,1017.50
2018-09-22T15:00:56.218Z,1017.52
2018-09-22T15:02:23.033Z,1017.54
2018-09-22T15:03:50.366Z,1017.57
2018-09-22T15:05:17.532Z,1017.58
2018-09-22T15:06:44.034Z,1017.51
2018-09-22T15:08:11.354Z,1017.51
2018-09-22T15:09:38.314Z,1017.48
2018-09-22T15:11:05.462Z,1017.39
2018-09-22T15:12:32.106Z,1017.37
2018-09-22T15:13:59.402Z,1017.37
2018-09-22T15:15:26.832Z,1017.38
2018-09-22T15:16:53.432Z,1017.35
2018-09-22T15:18:20.993Z,1017.37
2018-09-22T15:19:48.362Z,1017.32
2018-09-22T15:21:15.869Z,1017.32
2018-09-22T15:22:43.221Z,1017.28
2018-09-22T15:24:10.275Z,1017.28
2018-09-22T15:25:37.431Z,1017.25
2018-09-22T15:27:06.215Z,1017.24
2018-09-22T15:28:31.998Z,1017.18
2018-09-22T15:29:58.714Z,1017.17
2018-09-22T15:31:25.731Z,1017.17
2018-09-22T15:32:53.037Z,1017.17
2018-09-22T15:34:20.354Z,1017.13
2018-09-22T15:35:47.633Z,1017.17
2018-09-22T15:37:14.992Z,1017.23
2018-09-22T15:38:42.300Z,1017.22
2018-09-22T15:40:09.781Z,1017.22
2018-09-22T15:41:37.269Z,1017.27
2018-09-22T15:43:04.576Z,1017.24
2018-09-22T15:44:31.217Z,1017.21
2018-09-22T15:45:58.424Z,1017.20
2018-09-22T15:47:25.717Z,1017.18
2018-09-22T15:48:53.232Z,1017.18
2018-09-22T15:50:20.717Z,1017.18
2018-09-22T15:51:48.180Z,1017.14
2018-09-22T15:53:14.590Z,1017.17
2018-09-22T15:54:41.873Z,1017.16
2018-09-22T15:56:08.594Z,1017.12
2018-09-22T15:57:35.991Z,1017.14
2018-09-22T15:59:02.552Z,1017.13
2018-09-22T16:00:29.176Z,1017.14
2018-09-22T16:01:56.630Z,1017.12
2018-09-22T16:03:23.966Z,1017.10
2018-09-22T16:04:51.262Z,1017.07
2018-09-22T16:06:17.595Z,1017.10
2018-09-22T16:07:44.964Z,1017.09
2018-09-22T16:09:12.361Z,1017.10
2018-09-22T16:10:39.388Z,1017.10
2018-09-22T16:12:06.831Z,1017.13
2018-09-22T16:13:34.046Z,1017.11
2018-09-22T16:15:01.487Z,1017.14
2018-09-22T16:16:28.810Z,1017.17
2018-09-22T16:17:56.349Z,1017.17
2018-09-22T16:19:23.709Z,1017.16
2018-09-22T16:20:50.293Z,1017.13
2018-09-22T16:22:17.459Z,1017.10
2018-09-22T16:23:44.889Z,1017.06
2018-09-22T16:25:12.051Z,1017.07
2018-09-22T16:26:38.967Z,1017.05
2018-09-22T16:28:05.543Z,1017.07
2018-09-22T16:29:32.979Z,1017.06
2018-09-22T16:31:00.444Z,1017.05
2018-09-22T16:32:27.889Z,1017.02
2018-09-22T16:33:56.327Z,1017.02
2018-09-22T16:35:21.811Z,1017.03
2018-09-22T16:36:48.377Z,1017.00
2018-09-22T16:38:15.875Z,1016.98
2018-09-22T16:39:43.338Z,1017.00
2018-09-22T16:41:09.698Z,1017.02
2018-09-22T16:42:36.277Z,1017.02
2018-09-22T16:44:03.704Z,1016.97
2018-09-22T16:45:30.242Z,1016.97
2018-09-22T16:46:56.957Z,1017.03
2018-09-22T16:48:23.696Z,1017.04
2018-09-22T16:49:50.020Z,1017.04
2018-09-22T16:51:17.389Z,1017.05
2018-09-22T16:52:44.621Z,1017.05
2018-09-22T16:54:12.031Z,1017.06
2018-09-22T16:55:39.129Z,1017.07
2018-09-22T16:57:05.066Z,1017.05
2018-09-22T16:58:31.620Z,1017.06
2018-09-22T16:59:57.690Z,1017.05
2018-09-22T17:01:25.100Z,1017.03
2018-09-22T17:02:51.501Z,1017.01
2018-09-22T17:04:18.851Z,1016.95
2018-09-22T17:05:46.030Z,1016.92
2018-09-22T17:07:13.729Z,1016.89
2018-09-22T17:08:41.081Z,1016.90
2018-09-22T17:10:07.851Z,1016.94
2018-09-22T17:11:35.199Z,1016.99
2018-09-22T17:13:03.782Z,1016.99
2018-09-22T17:14:29.912Z,1017.05
2018-09-22T17:15:56.741Z,1017.04
2018-09-22T17:17:24.170Z,1017.05
2018-09-22T17:18:51.416Z,1017.05
2018-09-22T17:20:17.542Z,1017.02
2018-09-22T17:21:44.866Z,1017.02
2018-09-22T17:23:12.280Z,1017.01
2018-09-22T17:24:39.482Z,1017.02
2018-09-22T17:26:06.456Z,1017.06
2018-09-22T17:27:34.018Z,1017.05
2018-09-22T17:29:01.649Z,1017.11
2018-09-22T17:30:29.087Z,1017.09
2018-09-22T17:31:56.575Z,1017.08
2018-09-22T17:33:24.077Z,1017.02
2018-09-22T17:34:52.391Z,1016.98
2018-09-22T17:36:18.991Z,1016.99
2018-09-22T17:37:46.251Z,1016.97
2018-09-22T17:39:12.631Z,1016.98
2018-09-22T17:40:40.055Z,1016.99
2018-09-22T17:42:07.184Z,1017.00
2018-09-22T17:43:33.574Z,1017.02
2018-09-22T17:45:00.049Z,1017.01
2018-09-22T17:46:27.578Z,1016.99
2018-09-22T17:47:54.747Z,1017.00
2018-09-22T17:49:22.040Z,1016.96
2018-09-22T17:50:49.394Z,1016.95
2018-09-22T17:52:15.869Z,1016.94
2018-09-22T17:53:43.121Z,1016.97
2018-09-22T17:55:10.419Z,1016.99
2018-09-22T17:56:37.034Z,1017.02
2018-09-22T17:58:03.240Z,1016.98
2018-09-22T17:59:30.595Z,1016.97
2018-09-22T18:00:57.893Z,1016.95
2018-09-22T18:02:25.169Z,1016.98
2018-09-22T18:03:52.663Z,1016.97
2018-09-22T18:05:20.154Z,1016.93
2018-09-22T18:06:47.443Z,1016.88
2018-09-22T18:08:13.838Z,1016.89
2018-09-22T18:09:39.986Z,1016.92
2018-09-22T18:11:07.352Z,1016.94
2018-09-22T18:12:34.047Z,1016.92
2018-09-22T18:14:00.594Z,1016.93
2018-09-22T18:15:27.996Z,1016.92
2018-09-22T18:16:55.463Z,1016.95
2018-09-22T18:18:22.697Z,1016.95
2018-09-22T18:19:50.009Z,1017.00
2018-09-22T18:21:17.361Z,1017.01
2018-09-22T18:22:44.549Z,1017.02
2018-09-22T18:24:11.873Z,1017.04
2018-09-22T18:25:39.891Z,1017.04